Time;durP1;ratioP1;P1;durP2;ratioP2;P2;SDS_P1;SDS_P2;PMS_P1;PMS_P2;Temp;Humidity;BMP_temperature;BMP_pressure;BME280_temperature;BME280_humidity;BME280_pressure;Samples;Min_cycle;Max_cycle;Signal;HPM_P1;HPM_P2
2022/07/19 00:00:46;;;;;;;14.90;11.60;;;;;;;14.85;100.00;99546.20;105135;1271;75230;-71
2022/07/19 00:03:14;;;;;;;14.70;11.40;;;;;;;14.86;100.00;99541.66;105259;1271;70629;-72
2022/07/19 00:05:40;;;;;;;14.30;12.00;;;;;;;14.86;100.00;99538.98;105207;1268;73252;-71
2022/07/19 00:08:06;;;;;;;14.40;11.50;;;;;;;14.85;100.00;99538.48;105177;1270;61377;-72
2022/07/19 00:10:32;;;;;;;16.40;11.30;;;;;;;14.83;100.00;99537.08;105217;1271;61267;-71
2022/07/19 00:12:58;;;;;;;13.50;10.70;;;;;;;14.79;100.00;99538.78;105236;1270;61394;-71
2022/07/19 00:15:24;;;;;;;12.50;10.70;;;;;;;14.80;100.00;99542.30;105221;1271;61384;-73
2022/07/19 00:17:50;;;;;;;15.30;11.60;;;;;;;14.80;100.00;99541.73;105189;1271;61377;-72
2022/07/19 00:20:19;;;;;;;14.90;11.20;;;;;;;14.80;100.00;99541.02;105201;1271;61275;-72
2022/07/19 00:22:46;;;;;;;14.60;11.20;;;;;;;14.81;100.00;99547.61;105236;1271;62166;-73
2022/07/19 00:25:12;;;;;;;13.40;11.30;;;;;;;14.83;100.00;99549.39;105236;1271;61251;-72
2022/07/19 00:27:40;;;;;;;14.60;10.80;;;;;;;14.86;100.00;99542.05;105217;1269;61428;-72
2022/07/19 00:30:07;;;;;;;13.90;11.30;;;;;;;14.90;100.00;99540.14;105259;1271;73597;-72
2022/07/19 00:32:33;;;;;;;15.10;11.80;;;;;;;14.94;100.00;99540.18;105196;1271;61581;-72
2022/07/19 00:34:59;;;;;;;12.70;10.60;;;;;;;14.98;100.00;99542.73;105244;1268;61370;-71
2022/07/19 00:37:26;;;;;;;11.60;9.70;;;;;;;15.00;100.00;99542.91;105235;1268;61219;-72
2022/07/19 00:39:52;;;;;;;14.80;10.30;;;;;;;15.01;100.00;99544.27;105229;1269;61376;-72
2022/07/19 00:42:18;;;;;;;13.50;9.90;;;;;;;15.01;100.00;99549.30;105197;1268;61393;-72
2022/07/19 00:44:44;;;;;;;14.80;10.50;;;;;;;15.02;100.00;99546.73;105225;1268;61396;-73
2022/07/19 00:47:10;;;;;;;14.50;10.70;;;;;;;15.03;100.00;99546.27;105203;1268;61268;-72
2022/07/19 00:49:36;;;;;;;13.40;10.10;;;;;;;15.05;100.00;99548.60;105200;1271;61377;-73
2022/07/19 00:52:03;;;;;;;14.40;9.70;;;;;;;15.07;100.00;99544.21;105265;1269;61384;-73
2022/07/19 00:54:34;;;;;;;12.70;10.00;;;;;;;15.08;100.00;99545.87;104965;1271;61464;-73
2022/07/19 00:57:00;;;;;;;13.40;10.00;;;;;;;15.10;100.00;99549.31;105228;1269;61344;-72
2022/07/19 00:59:27;;;;;;;12.40;9.80;;;;;;;15.11;100.00;99545.14;105217;1268;61366;-72
2022/07/19 01:01:54;;;;;;;11.60;9.10;;;;;;;15.13;100.00;99544.09;105191;1271;76388;-72
2022/07/19 01:04:21;;;;;;;14.30;9.80;;;;;;;15.15;100.00;99546.20;105215;1268;70258;-72
2022/07/19 01:06:48;;;;;;;13.30;9.20;;;;;;;15.17;100.00;99543.48;105184;1268;73571;-71
2022/07/19 01:09:14;;;;;;;11.10;9.30;;;;;;;15.17;100.00;99541.86;105200;1268;61361;-72
2022/07/19 01:11:40;;;;;;;12.60;9.70;;;;;;;15.14;100.00;99540.60;105231;1271;61717;-72
2022/07/19 01:14:06;;;;;;;12.00;8.70;;;;;;;15.12;100.00;99541.64;105198;1269;61388;-72
2022/07/19 01:16:32;;;;;;;11.60;9.80;;;;;;;15.09;100.00;99543.11;105205;1269;61377;-72
2022/07/19 01:18:58;;;;;;;10.80;9.60;;;;;;;15.07;100.00;99540.04;105142;1269;61430;-72
2022/07/19 01:21:26;;;;;;;10.20;8.40;;;;;;;15.06;100.00;99540.82;105176;1271;61390;-72
2022/07/19 01:23:52;;;;;;;10.80;9.60;;;;;;;15.05;100.00;99537.68;105192;1269;61374;-71
2022/07/19 01:26:18;;;;;;;11.40;9.80;;;;;;;15.04;100.00;99539.73;105204;1268;61381;-72
2022/07/19 01:28:45;;;;;;;12.10;9.50;;;;;;;15.03;100.00;99538.56;104981;1272;61863;-72
2022/07/19 01:31:11;;;;;;;15.90;10.50;;;;;;;15.02;100.00;99543.15;105194;1270;61721;-72
2022/07/19 01:33:40;;;;;;;13.60;9.70;;;;;;;15.01;100.00;99549.80;105208;1271;61466;-71
2022/07/19 01:36:07;;;;;;;12.60;10.40;;;;;;;14.99;100.00;99545.85;104994;1271;61339;-71
2022/07/19 01:38:33;;;;;;;13.50;10.60;;;;;;;14.97;100.00;99547.79;105250;1270;75150;-71
2022/07/19 01:40:59;;;;;;;13.50;10.80;;;;;;;14.95;100.00;99547.45;104961;1272;61421;-72
2022/07/19 01:43:25;;;;;;;16.40;10.60;;;;;;;14.92;100.00;99545.45;105288;1268;61490;-72
2022/07/19 01:45:53;;;;;;;14.80;10.40;;;;;;;14.92;100.00;99541.55;105177;1268;61303;-72
2022/07/19 01:48:20;;;;;;;15.50;11.00;;;;;;;14.89;100.00;99538.52;105216;1271;61982;-71
2022/07/19 01:50:47;;;;;;;12.70;9.90;;;;;;;14.86;100.00;99536.11;105189;1269;74173;-72
2022/07/19 01:53:13;;;;;;;14.60;11.20;;;;;;;14.83;100.00;99533.35;105200;1268;61361;-72
2022/07/19 01:55:39;;;;;;;13.70;11.10;;;;;;;14.80;100.00;99532.98;105014;1271;61378;-72
2022/07/19 01:58:05;;;;;;;13.50;11.30;;;;;;;14.78;100.00;99539.09;105156;1271;61242;-75
2022/07/19 02:00:31;;;;;;;14.70;12.00;;;;;;;14.75;100.00;99538.57;105193;1269;61275;-72
2022/07/19 02:02:57;;;;;;;13.20;11.00;;;;;;;14.75;100.00;99540.71;105219;1271;61493;-72
2022/07/19 02:05:24;;;;;;;14.10;11.10;;;;;;;14.74;100.00;99540.23;105187;1268;61306;-72
2022/07/19 02:07:50;;;;;;;13.40;10.90;;;;;;;14.72;100.00;99543.77;105204;1271;61285;-72
2022/07/19 02:10:17;;;;;;;12.30;10.80;;;;;;;14.69;100.00;99541.15;105199;1269;61410;-72
2022/07/19 02:12:44;;;;;;;16.90;11.00;;;;;;;14.67;100.00;99537.70;105020;1271;61365;-72
2022/07/19 02:15:10;;;;;;;16.20;11.20;;;;;;;14.66;100.00;99541.06;105165;1271;61358;-72
2022/07/19 02:17:37;;;;;;;13.00;10.90;;;;;;;14.63;100.00;99545.15;105211;1271;61399;-71
2022/07/19 02:20:05;;;;;;;13.20;10.90;;;;;;;14.60;100.00;99543.98;104995;1271;61329;-71
2022/07/19 02:22:31;;;;;;;15.60;11.70;;;;;;;14.56;100.00;99550.94;105235;1270;61395;-72
2022/07/19 02:24:57;;;;;;;17.60;13.50;;;;;;;14.50;100.00;99556.52;105211;1271;61409;-72
2022/07/19 02:27:23;;;;;;;17.70;12.70;;;;;;;14.44;100.00;99557.10;105213;1271;61310;-72
2022/07/19 02:29:49;;;;;;;14.50;11.90;;;;;;;14.41;100.00;99553.90;105191;1271;61646;-72
2022/07/19 02:32:15;;;;;;;12.90;10.40;;;;;;;14.41;100.00;99553.78;105174;1268;61280;-72
2022/07/19 02:34:41;;;;;;;14.80;11.90;;;;;;;14.41;100.00;99551.45;105216;1271;61393;-72
2022/07/19 02:37:07;;;;;;;13.50;12.10;;;;;;;14.40;100.00;99546.71;105225;1271;61323;-72
2022/07/19 02:39:33;;;;;;;14.00;11.10;;;;;;;14.39;100.00;99550.83;104938;1271;61568;-72
2022/07/19 02:42:00;;;;;;;15.50;11.40;;;;;;;14.38;100.00;99551.48;105194;1268;61278;-72
2022/07/19 02:44:26;;;;;;;13.00;11.10;;;;;;;14.38;100.00;99552.58;105201;1271;61393;-72
2022/07/19 02:46:52;;;;;;;14.60;11.10;;;;;;;14.37;100.00;99552.63;105195;1271;61431;-70
2022/07/19 02:49:20;;;;;;;12.30;10.20;;;;;;;14.36;100.00;99554.71;105187;1271;61803;-71
2022/07/19 02:51:47;;;;;;;13.70;10.50;;;;;;;14.35;100.00;99558.13;104948;1271;69265;-71
2022/07/19 02:54:13;;;;;;;13.50;9.20;;;;;;;14.36;100.00;99561.14;105005;1271;74272;-71
2022/07/19 02:56:40;;;;;;;13.60;10.00;;;;;;;14.37;100.00;99558.34;105190;1268;61345;-71
2022/07/19 02:59:06;;;;;;;13.90;10.00;;;;;;;14.39;100.00;99558.35;105206;1269;61384;-72
2022/07/19 03:01:32;;;;;;;12.00;9.60;;;;;;;14.41;100.00;99560.73;105190;1270;61827;-72
2022/07/19 03:03:59;;;;;;;11.20;9.80;;;;;;;14.42;100.00;99559.39;105193;1268;61345;-72
2022/07/19 03:06:25;;;;;;;11.00;9.90;;;;;;;14.43;100.00;99561.84;105189;1268;61377;-72
2022/07/19 03:08:51;;;;;;;13.10;10.50;;;;;;;14.44;100.00;99561.42;105200;1271;61158;-71
2022/07/19 03:11:18;;;;;;;14.80;10.80;;;;;;;14.42;100.00;99556.86;104944;1271;61304;-71
2022/07/19 03:13:44;;;;;;;14.10;10.70;;;;;;;14.42;100.00;99559.05;105204;1271;61377;-71
2022/07/19 03:16:10;;;;;;;11.80;10.10;;;;;;;14.43;100.00;99557.02;105228;1268;61275;-71
2022/07/19 03:18:36;;;;;;;12.50;10.40;;;;;;;14.45;100.00;99559.38;105243;1269;61361;-72
2022/07/19 03:21:03;;;;;;;13.60;10.80;;;;;;;14.45;100.00;99563.98;105174;1271;61285;-71
2022/07/19 03:23:32;;;;;;;14.90;11.40;;;;;;;14.45;100.00;99562.20;105183;1268;61333;-72
2022/07/19 03:25:59;;;;;;;14.50;11.60;;;;;;;14.44;100.00;99565.19;105222;1271;75339;-72
2022/07/19 03:28:25;;;;;;;16.40;12.50;;;;;;;14.46;100.00;99565.34;104998;1271;61264;-72
2022/07/19 03:30:51;;;;;;;17.00;12.50;;;;;;;14.50;100.00;99565.09;105199;1271;61291;-72
2022/07/19 03:33:17;;;;;;;16.80;11.90;;;;;;;14.53;100.00;99567.56;105188;1271;61252;-71
2022/07/19 03:35:44;;;;;;;16.60;12.00;;;;;;;14.58;100.00;99572.41;105203;1271;61377;-71
2022/07/19 03:38:12;;;;;;;15.50;11.70;;;;;;;14.67;100.00;99577.45;105234;1269;61434;-71
2022/07/19 03:40:39;;;;;;;14.70;12.60;;;;;;;14.76;100.00;99578.59;105226;1271;69277;-73
2022/07/19 03:43:06;;;;;;;14.60;12.10;;;;;;;14.81;100.00;99577.45;105166;1271;73308;-74
2022/07/19 03:45:32;;;;;;;14.80;11.70;;;;;;;14.86;100.00;99578.33;105175;1271;61290;-71
2022/07/19 03:47:59;;;;;;;16.70;10.90;;;;;;;14.92;100.00;99580.02;105192;1270;62666;-72
2022/07/19 03:50:24;;;;;;;15.30;11.30;;;;;;;14.96;100.00;99576.87;105198;1271;61361;-72
2022/07/19 03:52:50;;;;;;;15.70;11.20;;;;;;;15.21;100.00;99575.83;105190;1271;61227;-73
2022/07/19 03:55:16;;;;;;;14.00;11.70;;;;;;;15.57;100.00;99581.15;105179;1271;61383;-71
2022/07/19 03:57:42;;;;;;;15.10;11.70;;;;;;;15.55;100.00;99583.98;105156;1271;61260;-72
2022/07/19 04:00:09;;;;;;;16.60;12.00;;;;;;;15.65;100.00;99589.63;105157;1271;61790;-72
2022/07/19 04:02:35;;;;;;;15.60;11.30;;;;;;;16.22;100.00;99583.34;105219;1271;61301;-72
2022/07/19 04:05:01;;;;;;;14.80;10.90;;;;;;;17.14;100.00;99581.45;105226;1271;61467;-72
2022/07/19 04:07:27;;;;;;;13.60;10.10;;;;;;;18.24;100.00;99580.38;105224;1269;61849;-73
2022/07/19 04:09:53;;;;;;;12.20;10.40;;;;;;;19.11;100.00;99585.78;105281;1268;61176;-73
2022/07/19 04:12:19;;;;;;;13.40;9.30;;;;;;;19.73;100.00;99581.22;105229;1269;61368;-72
2022/07/19 04:14:45;;;;;;;10.60;9.50;;;;;;;20.13;100.00;99584.65;105147;1271;61291;-72
2022/07/19 04:17:12;;;;;;;13.00;9.70;;;;;;;20.41;100.00;99586.23;105180;1271;61380;-72
2022/07/19 04:19:37;;;;;;;11.00;10.00;;;;;;;20.92;100.00;99589.83;105202;1271;61311;-72
2022/07/19 04:22:03;;;;;;;10.80;9.70;;;;;;;21.65;97.55;99584.44;105226;1271;61350;-72
2022/07/19 04:24:29;;;;;;;10.80;9.40;;;;;;;22.15;93.84;99585.88;104997;1271;61612;-72
2022/07/19 04:26:55;;;;;;;11.20;9.40;;;;;;;22.53;90.51;99584.77;105252;1271;61360;-72
2022/07/19 04:29:21;;;;;;;11.10;9.90;;;;;;;22.80;87.48;99583.19;105231;1271;61379;-73
2022/07/19 04:31:48;;;;;;;8.80;7.80;;;;;;;23.01;85.27;99580.67;105260;1271;61252;-73
2022/07/19 04:34:14;;;;;;;8.70;7.80;;;;;;;22.79;84.44;99580.44;105218;1268;61374;-72
2022/07/19 04:36:39;;;;;;;9.00;8.20;;;;;;;22.42;84.07;99579.73;105206;1268;61377;-73
2022/07/19 04:39:06;;;;;;;11.70;9.70;;;;;;;22.10;83.69;99582.42;104976;1271;61476;-73
2022/07/19 04:41:31;;;;;;;11.80;9.10;;;;;;;22.66;81.48;99580.45;105189;1268;61288;-72
2022/07/19 04:43:57;;;;;;;12.00;9.00;;;;;;;22.76;79.94;99582.23;105175;1270;61317;-73
2022/07/19 04:46:24;;;;;;;12.50;9.10;;;;;;;22.52;80.30;99584.29;105206;1268;61164;-72
2022/07/19 04:48:50;;;;;;;10.10;9.10;;;;;;;23.18;78.27;99585.27;104951;1268;61243;-73
2022/07/19 04:51:15;;;;;;;10.00;8.90;;;;;;;23.86;76.73;99577.17;105208;1268;61366;-73
2022/07/19 04:53:42;;;;;;;11.20;8.80;;;;;;;24.58;74.39;99574.87;105252;1271;61252;-72
2022/07/19 04:56:08;;;;;;;10.90;8.80;;;;;;;24.99;72.63;99566.98;105202;1269;61307;-72
2022/07/19 04:58:34;;;;;;;8.50;7.70;;;;;;;25.25;71.11;99561.88;104964;1271;61720;-73
2022/07/19 05:01:01;;;;;;;8.50;7.60;;;;;;;25.65;69.40;99558.46;105166;1268;61280;-72
2022/07/19 05:03:27;;;;;;;10.00;8.00;;;;;;;25.96;67.61;99555.92;105204;1269;61383;-72
2022/07/19 05:05:52;;;;;;;8.80;7.80;;;;;;;26.32;66.09;99557.00;105228;1268;61266;-72
2022/07/19 05:08:19;;;;;;;7.90;7.20;;;;;;;26.70;64.12;99558.61;105158;1268;61360;-72
2022/07/19 05:10:45;;;;;;;7.60;6.80;;;;;;;26.65;63.17;99560.83;105325;1268;61274;-72
2022/07/19 05:13:11;;;;;;;7.20;6.50;;;;;;;25.83;62.81;99557.55;105201;1268;61239;-72
2022/07/19 05:15:37;;;;;;;7.70;6.50;;;;;;;25.02;64.25;99561.79;105192;1268;61226;-72
2022/07/19 05:18:03;;;;;;;8.00;6.00;;;;;;;24.45;65.40;99562.64;105228;1271;61385;-72
2022/07/19 05:20:29;;;;;;;9.40;6.70;;;;;;;23.98;66.02;99564.48;105250;1269;61426;-73
2022/07/19 05:22:55;;;;;;;8.20;7.00;;;;;;;23.62;66.53;99563.12;105190;1268;74264;-72
2022/07/19 05:25:21;;;;;;;7.50;6.60;;;;;;;23.31;67.08;99560.63;105196;1268;61310;-72
2022/07/19 05:27:47;;;;;;;10.90;6.80;;;;;;;23.10;67.38;99563.98;105250;1268;61374;-72
2022/07/19 05:30:14;;;;;;;8.30;6.60;;;;;;;22.94;67.80;99563.93;105235;1269;61292;-72
2022/07/19 05:32:40;;;;;;;7.70;6.50;;;;;;;22.87;67.60;99572.70;105264;1268;61290;-72
2022/07/19 05:35:06;;;;;;;7.40;6.30;;;;;;;22.83;67.61;99578.44;104913;1272;61298;-72
2022/07/19 05:37:33;;;;;;;9.90;6.70;;;;;;;22.87;67.38;99580.11;105023;1272;61467;-72
2022/07/19 05:39:59;;;;;;;10.70;6.20;;;;;;;23.11;66.79;99579.17;105187;1271;61338;-72
2022/07/19 05:42:25;;;;;;;7.80;5.90;;;;;;;23.68;64.86;99579.16;105193;1269;61285;-72
2022/07/19 05:44:52;;;;;;;8.10;6.60;;;;;;;24.46;63.17;99576.11;105236;1268;61298;-72
2022/07/19 05:47:18;;;;;;;8.00;6.30;;;;;;;25.06;61.19;99575.64;105208;1271;61388;-72
2022/07/19 05:49:44;;;;;;;8.80;6.50;;;;;;;25.62;60.88;99566.05;105216;1271;61291;-71
2022/07/19 05:52:10;;;;;;;8.80;6.20;;;;;;;26.08;59.15;99566.06;105210;1270;61252;-74
2022/07/19 05:54:36;;;;;;;6.50;5.80;;;;;;;26.38;58.18;99566.20;105215;1271;61292;-73
2022/07/19 05:57:02;;;;;;;7.90;6.30;;;;;;;26.75;57.21;99563.81;105256;1271;61389;-72
2022/07/19 05:59:29;;;;;;;8.90;6.30;;;;;;;27.14;55.16;99563.26;105208;1271;61380;-72
2022/07/19 06:01:54;;;;;;;7.20;5.70;;;;;;;27.16;53.77;99560.48;104955;1272;61589;-71
2022/07/19 06:04:20;;;;;;;8.60;6.10;;;;;;;27.19;53.23;99561.00;105224;1271;61342;-71
2022/07/19 06:06:47;;;;;;;7.60;5.50;;;;;;;27.32;52.44;99559.86;105219;1271;61288;-72
2022/07/19 06:09:15;;;;;;;8.90;5.40;;;;;;;27.43;51.65;99554.48;105218;1271;61374;-72
2022/07/19 06:11:41;;;;;;;6.60;5.20;;;;;;;27.63;51.25;99554.00;105210;1271;61312;-72
2022/07/19 06:14:08;;;;;;;12.50;5.50;;;;;;;27.84;51.12;99553.66;105232;1270;60095;-72
2022/07/19 06:16:37;;;;;;;6.30;4.80;;;;;;;28.10;50.55;99552.41;105226;1270;61259;-71
2022/07/19 06:19:05;;;;;;;6.60;5.10;;;;;;;28.37;49.98;99551.42;105263;1271;70295;-73
2022/07/19 06:21:33;;;;;;;8.50;5.40;;;;;;;28.54;49.30;99551.81;104979;1271;74549;-73
2022/07/19 06:23:59;;;;;;;5.60;4.10;;;;;;;28.66;48.95;99547.84;105265;1271;62042;-72
2022/07/19 06:26:26;;;;;;;6.40;4.60;;;;;;;28.82;47.64;99548.30;105237;1271;61853;-71
2022/07/19 06:28:53;;;;;;;6.10;4.40;;;;;;;28.81;47.15;99549.75;105218;1271;76811;-71
2022/07/19 06:31:20;;;;;;;4.10;3.80;;;;;;;29.00;46.91;99551.05;105067;1271;70269;-72
2022/07/19 06:33:49;;;;;;;5.40;4.30;;;;;;;29.39;45.99;99549.52;105222;1271;61503;-71
2022/07/19 06:36:16;;;;;;;4.70;3.90;;;;;;;29.60;45.28;99543.02;104956;1271;61321;-73
2022/07/19 06:38:43;;;;;;;7.80;4.20;;;;;;;29.89;44.52;99545.95;105277;1270;62110;-72
2022/07/19 06:41:10;;;;;;;5.50;4.30;;;;;;;30.30;43.81;99543.95;105220;1271;61499;-72
2022/07/19 06:43:38;;;;;;;7.80;4.20;;;;;;;30.67;42.62;99539.94;104984;1274;70388;-72
2022/07/19 06:46:05;;;;;;;4.40;3.90;;;;;;;30.98;42.55;99540.61;105231;1271;73649;-73
2022/07/19 06:48:31;;;;;;;8.70;5.30;;;;;;;30.77;41.97;99543.19;104948;1272;61256;-73
2022/07/19 06:50:57;;;;;;;8.80;5.50;;;;;;;30.44;42.09;99535.81;105248;1270;61347;-72
2022/07/19 06:53:23;;;;;;;6.80;4.80;;;;;;;29.86;42.60;99532.98;105208;1271;61310;-72
2022/07/19 06:55:49;;;;;;;6.60;4.40;;;;;;;29.26;43.28;99532.13;105264;1271;61332;-74
2022/07/19 06:58:16;;;;;;;5.30;4.10;;;;;;;28.90;43.79;99541.19;105148;1271;61166;-72
2022/07/19 07:00:42;;;;;;;6.60;4.90;;;;;;;28.98;43.81;99539.84;105085;1271;62067;-73
2022/07/19 07:03:09;;;;;;;5.30;3.90;;;;;;;29.18;43.56;99541.21;105270;1271;61298;-72
2022/07/19 07:05:35;;;;;;;5.40;4.80;;;;;;;29.23;43.03;99539.02;105252;1271;61310;-73
2022/07/19 07:08:03;;;;;;;5.60;4.50;;;;;;;29.27;43.39;99540.08;105332;1271;61289;-73
2022/07/19 07:10:29;;;;;;;10.10;4.20;;;;;;;29.29;43.04;99539.83;105263;1271;61255;-73
2022/07/19 07:12:55;;;;;;;6.30;3.60;;;;;;;29.39;43.36;99542.48;105209;1271;61375;-72
2022/07/19 07:15:21;;;;;;;5.90;3.90;;;;;;;29.30;42.30;99542.77;105204;1271;61368;-74
2022/07/19 07:17:47;;;;;;;7.60;4.30;;;;;;;29.13;42.52;99538.16;105224;1271;61425;-73
2022/07/19 07:20:13;;;;;;;6.00;4.40;;;;;;;29.21;42.46;99540.88;105252;1271;61372;-75
2022/07/19 07:22:40;;;;;;;6.70;4.90;;;;;;;29.22;42.98;99542.40;105225;1271;61306;-73
2022/07/19 07:25:08;;;;;;;4.60;3.70;;;;;;;29.35;42.88;99540.06;105252;1269;61300;-72
2022/07/19 07:27:34;;;;;;;7.20;3.60;;;;;;;29.28;41.97;99543.96;105204;1269;61258;-72
2022/07/19 07:30:00;;;;;;;3.80;3.40;;;;;;;29.09;42.43;99544.49;105216;1270;61330;-71
2022/07/19 07:32:26;;;;;;;6.50;3.80;;;;;;;28.90;42.70;99540.55;105249;1271;61356;-72
2022/07/19 07:34:54;;;;;;;4.80;3.60;;;;;;;28.58;42.46;99540.98;105242;1271;61380;-72
2022/07/19 07:37:20;;;;;;;4.60;3.10;;;;;;;28.20;42.70;99538.39;105059;1274;61562;-71
2022/07/19 07:39:46;;;;;;;3.80;3.40;;;;;;;28.09;43.56;99540.66;105228;1271;61467;-72
2022/07/19 07:42:12;;;;;;;9.20;4.20;;;;;;;28.03;43.75;99544.21;104977;1272;61387;-72
2022/07/19 07:44:40;;;;;;;34.50;7.50;;;;;;;27.94;43.18;99547.59;105204;1269;61370;-73
2022/07/19 07:47:08;;;;;;;5.10;3.30;;;;;;;27.68;43.43;99545.86;105227;1271;61278;-73
2022/07/19 07:49:35;;;;;;;15.90;7.10;;;;;;;27.56;43.58;99546.66;105081;1271;61366;-71
2022/07/19 07:52:02;;;;;;;5.80;3.50;;;;;;;27.52;43.45;99543.29;105325;1271;61268;-72
2022/07/19 07:54:28;;;;;;;6.50;3.60;;;;;;;27.41;43.44;99542.33;105030;1274;61431;-72
2022/07/19 07:56:54;;;;;;;14.30;6.90;;;;;;;27.33;43.83;99541.67;105163;1271;61474;-72
2022/07/19 07:59:20;;;;;;;6.00;3.60;;;;;;;27.38;43.78;99541.21;105188;1271;61346;-73
2022/07/19 08:01:46;;;;;;;35.10;10.90;;;;;;;27.50;44.15;99545.64;105213;1271;61307;-75
2022/07/19 08:04:12;;;;;;;23.30;6.70;;;;;;;27.68;43.96;99541.38;105214;1271;61268;-73
2022/07/19 08:06:38;;;;;;;5.30;3.30;;;;;;;27.87;44.03;99542.23;105214;1271;61240;-73
2022/07/19 08:09:05;;;;;;;7.40;4.00;;;;;;;28.12;43.70;99538.83;105257;1271;61262;-71
2022/07/19 08:11:31;;;;;;;6.60;3.10;;;;;;;28.47;42.67;99537.16;105181;1271;61325;-72
2022/07/19 08:13:57;;;;;;;5.20;2.90;;;;;;;28.67;41.90;99531.01;105217;1271;61349;-71
2022/07/19 08:16:23;;;;;;;4.40;3.10;;;;;;;28.69;40.97;99527.27;105356;1271;61262;-72
2022/07/19 08:18:49;;;;;;;7.00;3.20;;;;;;;28.81;41.22;99526.02;105223;1272;61413;-72
2022/07/19 08:21:15;;;;;;;3.70;2.80;;;;;;;29.00;40.49;99529.64;105200;1270;74380;-72
2022/07/19 08:23:41;;;;;;;5.00;2.70;;;;;;;29.22;40.14;99527.98;105191;1271;61394;-73
2022/07/19 08:26:08;;;;;;;4.10;3.40;;;;;;;29.43;39.83;99524.18;105212;1271;61341;-71
2022/07/19 08:28:35;;;;;;;3.70;3.00;;;;;;;29.36;38.35;99525.79;105276;1271;61670;-72
2022/07/19 08:31:01;;;;;;;4.10;3.60;;;;;;;29.11;38.50;99528.19;105232;1271;61357;-73
2022/07/19 08:33:27;;;;;;;6.90;3.00;;;;;;;29.02;39.71;99526.42;105190;1271;61280;-73
2022/07/19 08:35:53;;;;;;;3.40;2.50;;;;;;;29.01;39.54;99527.57;105206;1271;61458;-73
2022/07/19 08:38:19;;;;;;;4.80;2.90;;;;;;;29.05;39.72;99529.91;105240;1271;61258;-72
2022/07/19 08:40:48;;;;;;;3.90;3.20;;;;;;;29.09;39.44;99526.75;105219;1271;61368;-73
2022/07/19 08:43:14;;;;;;;6.50;2.70;;;;;;;29.03;40.20;99528.17;105258;1271;70448;-73
2022/07/19 08:45:41;;;;;;;3.80;3.00;;;;;;;28.99;40.36;99529.97;105203;1271;61317;-72
2022/07/19 08:48:07;;;;;;;5.30;2.70;;;;;;;28.84;39.23;99526.16;105225;1271;61384;-72
2022/07/19 08:50:34;;;;;;;74.20;50.70;;;;;;;28.56;39.79;99523.72;105063;1271;61257;-72
2022/07/19 08:53:01;;;;;;;10.60;6.50;;;;;;;28.62;40.65;99524.33;104967;1272;61507;-71
2022/07/19 08:55:28;;;;;;;9.00;4.10;;;;;;;28.70;40.77;99522.74;105256;1269;61349;-73
2022/07/19 08:57:57;;;;;;;4.90;3.30;;;;;;;28.73;40.22;99523.34;105513;1271;74241;-73
2022/07/19 09:00:26;;;;;;;6.90;3.10;;;;;;;28.64;40.36;99519.45;105519;1271;61199;-72
2022/07/19 09:02:52;;;;;;;3.90;2.30;;;;;;;28.56;40.61;99519.20;105548;1274;61956;-72
2022/07/19 09:05:18;;;;;;;3.60;2.50;;;;;;;28.57;40.34;99514.44;105194;1271;61256;-72
2022/07/19 09:08:07;;;;;;;6.20;2.90;;;;;;;28.60;40.49;99510.77;105224;1272;61362;-71
2022/07/19 09:10:36;;;;;;;6.20;2.70;;;;;;;28.64;39.80;99508.59;105236;1271;73650;-72
2022/07/19 09:13:14;;;;;;;4.90;2.40;;;;;;;28.62;39.99;99510.52;105247;1269;61248;-72
2022/07/19 09:15:42;;;;;;;4.40;2.20;;;;;;;28.59;39.75;99508.19;105227;1271;61250;-73
2022/07/19 09:18:11;;;;;;;5.60;2.90;;;;;;;28.66;40.28;99503.95;105157;1271;75220;-72
2022/07/19 09:20:39;;;;;;;2.50;2.10;;;;;;;28.79;40.27;99508.79;105248;1271;70701;-72
2022/07/19 09:23:06;;;;;;;4.30;2.60;;;;;;;28.93;40.29;99506.98;105204;1271;73848;-73
2022/07/19 09:25:43;;;;;;;3.20;1.80;;;;;;;28.95;38.72;99506.33;105195;1271;61477;-73
2022/07/19 09:28:10;;;;;;;4.40;1.70;;;;;;;28.95;38.39;99503.45;105285;1271;61288;-73
2022/07/19 09:30:51;;;;;;;3.30;1.90;;;;;;;28.91;37.43;99509.61;105326;1271;75113;-73
2022/07/19 09:33:20;;;;;;;4.10;2.00;;;;;;;28.87;37.86;99503.70;105339;1271;70451;-72
2022/07/19 09:35:56;;;;;;;2.00;1.80;;;;;;;28.97;37.94;99502.23;105436;1274;73537;-74
2022/07/19 09:38:30;;;;;;;2.20;1.80;;;;;;;29.03;36.45;99498.44;105217;1271;61265;-72
2022/07/19 09:41:10;;;;;;;3.30;1.60;;;;;;;28.96;35.58;99496.40;105262;1269;62040;-73
2022/07/19 09:43:58;;;;;;;4.00;2.20;;;;;;;28.81;35.53;99493.77;105258;1271;74908;-73
2022/07/19 09:46:33;;;;;;;2.90;2.00;;;;;;;28.86;36.84;99493.31;105033;1271;288422;-73
2022/07/19 09:49:16;;;;;;;3.50;1.90;;;;;;;29.00;36.22;99488.39;105262;1271;74734;-73
2022/07/19 09:51:51;;;;;;;6.00;3.00;;;;;;;29.17;36.52;99484.91;105318;1271;61290;-73
2022/07/19 09:54:23;;;;;;;4.50;2.10;;;;;;;29.33;37.01;99484.48;105372;1270;61365;-74
2022/07/19 09:56:50;;;;;;;2.60;1.80;;;;;;;29.46;36.98;99485.70;105366;1271;76481;-74
2022/07/19 09:59:18;;;;;;;2.50;1.50;;;;;;;29.53;36.15;99482.25;105260;1271;69526;-73
2022/07/19 10:01:48;;;;;;;3.80;2.00;;;;;;;29.54;36.35;99482.30;105302;1265;74145;-73
2022/07/19 10:04:18;;;;;;;3.20;1.90;;;;;;;29.53;35.10;99479.09;105340;1271;61396;-73
2022/07/19 10:06:47;;;;;;;2.30;1.90;;;;;;;29.46;34.48;99476.19;105223;1271;61960;-73
2022/07/19 10:09:16;;;;;;;5.40;2.20;;;;;;;29.27;33.09;99476.34;105321;1271;76223;-71
2022/07/19 10:11:43;;;;;;;2.50;1.70;;;;;;;29.11;33.07;99476.00;105371;1271;69281;-72
2022/07/19 10:14:10;;;;;;;3.70;2.10;;;;;;;29.03;32.75;99474.42;105227;1271;74660;-72
2022/07/19 10:17:02;;;;;;;5.10;1.90;;;;;;;29.05;33.94;99471.04;105237;1271;61326;-72
2022/07/19 10:19:39;;;;;;;3.50;1.90;;;;;;;29.27;33.95;99474.18;105235;1271;61261;-74
2022/07/19 10:22:09;;;;;;;2.70;1.90;;;;;;;29.32;34.14;99475.73;105212;1271;76211;-72
2022/07/19 10:24:57;;;;;;;3.90;1.70;;;;;;;29.40;33.98;99470.23;105367;1271;69551;-74
2022/07/19 10:27:24;;;;;;;5.10;2.00;;;;;;;29.53;34.06;99469.95;105220;1271;74754;-73
2022/07/19 10:29:56;;;;;;;1.70;1.60;;;;;;;29.62;34.22;99471.73;105233;1271;61260;-72
2022/07/19 10:32:31;;;;;;;3.10;2.60;;;;;;;29.64;34.05;99467.55;105255;1271;61424;-72
2022/07/19 10:35:17;;;;;;;3.80;1.60;;;;;;;29.69;34.04;99465.23;105180;1268;75959;-72
2022/07/19 10:37:46;;;;;;;2.90;2.30;;;;;;;29.73;33.97;99466.14;105216;1271;69803;-72
2022/07/19 10:40:12;;;;;;;6.40;2.40;;;;;;;29.76;34.03;99465.21;105276;1270;74396;-72
2022/07/19 10:43:13;;;;;;;2.00;1.80;;;;;;;29.75;33.19;99463.14;105213;1271;61276;-73
2022/07/19 10:46:03;;;;;;;4.00;2.50;;;;;;;29.73;33.58;99461.38;105263;1271;61989;-73
2022/07/19 10:48:48;;;;;;;4.50;2.40;;;;;;;29.84;33.55;99460.91;105208;1271;75479;-73
2022/07/19 10:51:34;;;;;;;4.10;1.90;;;;;;;29.88;33.52;99458.58;105213;1271;69617;-74
2022/07/19 10:54:07;;;;;;;2.40;1.70;;;;;;;29.90;33.31;99456.28;105168;1271;74792;-72
2022/07/19 10:56:42;;;;;;;4.30;2.30;;;;;;;29.96;33.67;99455.33;105232;1271;61291;-73
2022/07/19 10:59:12;;;;;;;6.30;2.10;;;;;;;30.09;33.27;99452.54;105240;1271;61260;-72
2022/07/19 11:01:53;;;;;;;;;;;;;;;30.12;33.07;99448.37;105355;1269;74329;-72
2022/07/19 11:04:31;;;;;;;8.40;2.90;;;;;;;30.20;33.47;99445.58;105240;1270;69316;-72
2022/07/19 11:07:18;;;;;;;6.10;2.80;;;;;;;30.31;33.62;99442.64;105301;1271;74256;-72
2022/07/19 11:09:46;;;;;;;3.90;1.80;;;;;;;30.40;32.85;99444.19;104986;1272;61338;-72
2022/07/19 11:12:31;;;;;;;5.00;2.00;;;;;;;30.43;33.18;99441.38;105272;1271;61185;-73
2022/07/19 11:15:00;;;;;;;2.90;2.00;;;;;;;30.49;33.34;99439.79;105198;1269;75943;-71
2022/07/19 11:17:28;;;;;;;6.00;2.10;;;;;;;30.53;32.91;99442.88;105273;1268;69284;-72
2022/07/19 11:20:07;;;;;;;3.10;1.70;;;;;;;30.48;32.51;99445.33;105016;1271;73348;-72